CheckWX is a tool to help pilots better visualize weather data.  It is not intended as a substitute for an official pre-flight weather briefing.

02:42:22 UTC

KBPI TAF
Miley Memorial Field Airport
Big Piney, Wyoming, USA
KBPI 060529Z 0606/0706 VRB05KT P6SM SCT050 BKN080 FM061800 25012G20KT P6SM VCSH SCT025 BKN040 FM062200 26016G26KT P6SM -SHRA OVC035 FM070200 25005KT P6SM BKN050

Apr-6@
06:00 UTC

Apr-6 @ 06:00 UTC

Apr-6@
18:00 UTC

Apr-6 @ 18:00 UTC

TAF KBPI 060529Z 0606/0706 VRB05KT P6SM SCT050 BKN080

Expired

Wind
  • Variable at 5 KTS
Cloud Levels
  • Scattered at 5,000' AGL
  • Broken at 8,000' AGL

Apr-6@
18:00 UTC

Apr-6 @ 18:00 UTC

Apr-6@
22:00 UTC

Apr-6 @ 22:00 UTC

FM061800 25012G20KT P6SM VCSH SCT025 BKN040

Expired

Wind
  • 250° at 12 KTS
  • {Gusting to 20 KTS
Conditions
Area Showers
Cloud Levels
  • Scattered at 2,500' AGL
  • Broken at 4,000' AGL

Apr-6@
22:00 UTC

Apr-6 @ 22:00 UTC

Apr-7@
02:00 UTC

Apr-7 @ 02:00 UTC

FM062200 26016G26KT P6SM -SHRA OVC035

Expired

Wind
  • 260° at 16 KTS
  • {Gusting to 26 KTS
Conditions
Light Showers, Rain
Cloud Levels
  • Overcast at 3,500' AGL

Apr-7@
02:00 UTC

Apr-7 @ 02:00 UTC

Apr-7@
06:00 UTC

Apr-7 @ 06:00 UTC

FM070200 25005KT P6SM BKN050

From

From Standard forecast or significant change

Wind
  • 250° at 5 KTS
Cloud Levels
  • Broken at 5,000' AGL